Lenorah, Texas
Current Conditions -  °F | °C
As of 10:55 AM on Friday 24 Oct 2014 (Local Time) from KBPG Reporting Station
Clear Clear  
Wind Chill: 18°   Ceiling: Unl
Heat Index: 18°   Visibility: 10mi
Dew Point: 17°   Wind: 6mph
Humidity: 94%   Direction: 180°S
Pressure: 30.22"   Gusts: NA
Location:  32.3°N, 101.88°W
Report Text: KBPG 241555Z AUTO 18005KT 10SM CLR 18/17 A3022 RMK AO2 T01830173
Loading
Personal Weather Stations






























Interactive Weather Map
Tropical Storm Tracking
New forecast layout! Learn more

10-Day Weather Forecast

Advertisements
Track Severe Weather on mobile